Terminal Aerodrome Forecast
Issued by NWS Bismarck, ND

Home | Current Version | Previous Version | Graphics & Text | Print | Product List | Glossary On
Versions: 1 2 3 4 5 6 7 8 9 10 11 12 13 14 15 16 17
000
FTUS43 KBIS 160536
TAFBIS
TAF
KBIS 160536Z 1606/1706 29005KT P6SM SCT040 BKN070
      TEMPO 1606/1609 -SHRA BKN040 OVC070
     FM160900 31005KT P6SM VCSH OVC025
     FM161400 31006KT P6SM OVC015
     FM161600 32006KT P6SM OVC020
     FM162000 32009KT P6SM BKN040
     FM162300 31005KT P6SM BKN100=

USA.gov is the U.S. government's official web portal to all federal, state and local government web resources and services.